sensor_id;sensor_type;location;lat;lon;timestamp;P1;durP1;ratioP1;P2;durP2;ratioP2
3781;SDS011;6881;49.962;7.718;2022-08-27T00:00:50;17.90;;;15.23;;
3781;SDS011;6881;49.962;7.718;2022-08-27T00:03:15;21.57;;;15.83;;
3781;SDS011;6881;49.962;7.718;2022-08-27T00:05:41;19.63;;;16.37;;
3781;SDS011;6881;49.962;7.718;2022-08-27T00:08:08;19.07;;;17.07;;
3781;SDS011;6881;49.962;7.718;2022-08-27T00:10:36;18.30;;;16.47;;
3781;SDS011;6881;49.962;7.718;2022-08-27T00:13:02;20.37;;;18.17;;
3781;SDS011;6881;49.962;7.718;2022-08-27T00:15:28;22.80;;;18.00;;
3781;SDS011;6881;49.962;7.718;2022-08-27T00:17:54;23.27;;;16.70;;
3781;SDS011;6881;49.962;7.718;2022-08-27T00:20:21;18.80;;;16.10;;
3781;SDS011;6881;49.962;7.718;2022-08-27T00:22:48;19.90;;;17.87;;
3781;SDS011;6881;49.962;7.718;2022-08-27T00:25:14;20.63;;;18.37;;
3781;SDS011;6881;49.962;7.718;2022-08-27T00:27:40;19.90;;;18.00;;
3781;SDS011;6881;49.962;7.718;2022-08-27T00:30:07;21.53;;;17.70;;
3781;SDS011;6881;49.962;7.718;2022-08-27T00:32:34;19.80;;;17.73;;
3781;SDS011;6881;49.962;7.718;2022-08-27T00:34:59;23.90;;;20.30;;
3781;SDS011;6881;49.962;7.718;2022-08-27T00:37:24;20.77;;;18.43;;
3781;SDS011;6881;49.962;7.718;2022-08-27T00:39:50;22.00;;;19.17;;
3781;SDS011;6881;49.962;7.718;2022-08-27T00:42:15;20.03;;;17.93;;
3781;SDS011;6881;49.962;7.718;2022-08-27T00:44:40;25.07;;;20.67;;
3781;SDS011;6881;49.962;7.718;2022-08-27T00:47:09;31.57;;;20.17;;
3781;SDS011;6881;49.962;7.718;2022-08-27T00:49:50;22.07;;;18.37;;
3781;SDS011;6881;49.962;7.718;2022-08-27T00:57:28;23.03;;;20.63;;
3781;SDS011;6881;49.962;7.718;2022-08-27T00:59:54;24.10;;;21.30;;
3781;SDS011;6881;49.962;7.718;2022-08-27T01:02:19;26.07;;;23.23;;
3781;SDS011;6881;49.962;7.718;2022-08-27T01:04:46;27.50;;;24.17;;
3781;SDS011;6881;49.962;7.718;2022-08-27T01:07:14;26.77;;;23.87;;
3781;SDS011;6881;49.962;7.718;2022-08-27T01:09:40;26.40;;;22.47;;
3781;SDS011;6881;49.962;7.718;2022-08-27T01:12:06;28.33;;;24.00;;
3781;SDS011;6881;49.962;7.718;2022-08-27T01:14:32;29.83;;;23.77;;
3781;SDS011;6881;49.962;7.718;2022-08-27T01:16:58;26.97;;;24.07;;
3781;SDS011;6881;49.962;7.718;2022-08-27T01:25:04;33.17;;;23.57;;
3781;SDS011;6881;49.962;7.718;2022-08-27T01:27:32;30.17;;;24.63;;
3781;SDS011;6881;49.962;7.718;2022-08-27T01:29:58;29.40;;;24.87;;
3781;SDS011;6881;49.962;7.718;2022-08-27T01:32:29;31.20;;;25.00;;
3781;SDS011;6881;49.962;7.718;2022-08-27T01:34:55;27.77;;;23.70;;
3781;SDS011;6881;49.962;7.718;2022-08-27T01:37:22;31.90;;;24.97;;
3781;SDS011;6881;49.962;7.718;2022-08-27T01:39:49;30.23;;;22.93;;
3781;SDS011;6881;49.962;7.718;2022-08-27T01:44:52;27.80;;;22.37;;
3781;SDS011;6881;49.962;7.718;2022-08-27T01:47:20;28.93;;;22.10;;
3781;SDS011;6881;49.962;7.718;2022-08-27T01:49:46;30.87;;;22.60;;
3781;SDS011;6881;49.962;7.718;2022-08-27T01:52:12;27.73;;;22.50;;
3781;SDS011;6881;49.962;7.718;2022-08-27T01:54:39;27.60;;;22.57;;
3781;SDS011;6881;49.962;7.718;2022-08-27T01:57:04;29.33;;;23.90;;
3781;SDS011;6881;49.962;7.718;2022-08-27T01:59:30;28.23;;;23.20;;
3781;SDS011;6881;49.962;7.718;2022-08-27T02:01:55;27.00;;;23.90;;
3781;SDS011;6881;49.962;7.718;2022-08-27T02:04:21;28.40;;;22.50;;
3781;SDS011;6881;49.962;7.718;2022-08-27T02:06:47;31.03;;;24.60;;
3781;SDS011;6881;49.962;7.718;2022-08-27T02:09:12;25.57;;;22.20;;
3781;SDS011;6881;49.962;7.718;2022-08-27T02:11:38;29.07;;;23.57;;
3781;SDS011;6881;49.962;7.718;2022-08-27T02:14:03;30.80;;;24.93;;
3781;SDS011;6881;49.962;7.718;2022-08-27T02:16:29;33.63;;;23.40;;
3781;SDS011;6881;49.962;7.718;2022-08-27T02:18:56;30.77;;;24.97;;
3781;SDS011;6881;49.962;7.718;2022-08-27T02:21:22;28.87;;;23.90;;
3781;SDS011;6881;49.962;7.718;2022-08-27T02:23:47;32.00;;;26.07;;
3781;SDS011;6881;49.962;7.718;2022-08-27T02:26:12;31.17;;;24.47;;
3781;SDS011;6881;49.962;7.718;2022-08-27T02:28:38;26.97;;;22.37;;
3781;SDS011;6881;49.962;7.718;2022-08-27T02:31:03;32.67;;;24.60;;
3781;SDS011;6881;49.962;7.718;2022-08-27T02:33:29;33.00;;;24.77;;
3781;SDS011;6881;49.962;7.718;2022-08-27T02:35:56;36.97;;;25.73;;
3781;SDS011;6881;49.962;7.718;2022-08-27T02:38:21;26.23;;;21.80;;
3781;SDS011;6881;49.962;7.718;2022-08-27T02:40:47;31.90;;;27.00;;
3781;SDS011;6881;49.962;7.718;2022-08-27T02:43:12;31.67;;;26.77;;
3781;SDS011;6881;49.962;7.718;2022-08-27T02:45:38;31.80;;;23.90;;
3781;SDS011;6881;49.962;7.718;2022-08-27T02:48:04;34.17;;;25.43;;
3781;SDS011;6881;49.962;7.718;2022-08-27T02:50:29;38.33;;;26.40;;
3781;SDS011;6881;49.962;7.718;2022-08-27T02:52:55;32.53;;;26.10;;
3781;SDS011;6881;49.962;7.718;2022-08-27T02:55:21;31.33;;;26.23;;
3781;SDS011;6881;49.962;7.718;2022-08-27T02:57:46;32.50;;;27.07;;
3781;SDS011;6881;49.962;7.718;2022-08-27T03:00:13;31.93;;;24.90;;
3781;SDS011;6881;49.962;7.718;2022-08-27T03:02:40;35.77;;;26.57;;
3781;SDS011;6881;49.962;7.718;2022-08-27T03:05:05;34.87;;;27.30;;
3781;SDS011;6881;49.962;7.718;2022-08-27T03:07:32;36.00;;;28.67;;
3781;SDS011;6881;49.962;7.718;2022-08-27T03:09:57;32.70;;;26.80;;
3781;SDS011;6881;49.962;7.718;2022-08-27T03:12:23;35.43;;;28.73;;
3781;SDS011;6881;49.962;7.718;2022-08-27T03:14:48;32.07;;;26.50;;
3781;SDS011;6881;49.962;7.718;2022-08-27T03:17:14;33.47;;;26.27;;
3781;SDS011;6881;49.962;7.718;2022-08-27T03:19:58;36.07;;;26.77;;
3781;SDS011;6881;49.962;7.718;2022-08-27T03:22:23;33.27;;;26.27;;
3781;SDS011;6881;49.962;7.718;2022-08-27T03:24:49;31.60;;;25.37;;
3781;SDS011;6881;49.962;7.718;2022-08-27T03:27:15;29.40;;;24.87;;
3781;SDS011;6881;49.962;7.718;2022-08-27T03:29:40;28.20;;;25.17;;
3781;SDS011;6881;49.962;7.718;2022-08-27T03:32:05;28.53;;;23.47;;
3781;SDS011;6881;49.962;7.718;2022-08-27T03:34:31;28.60;;;23.60;;
3781;SDS011;6881;49.962;7.718;2022-08-27T03:36:56;24.13;;;20.97;;
3781;SDS011;6881;49.962;7.718;2022-08-27T03:39:24;29.20;;;23.40;;
3781;SDS011;6881;49.962;7.718;2022-08-27T03:41:49;28.63;;;23.97;;
3781;SDS011;6881;49.962;7.718;2022-08-27T03:44:15;27.80;;;22.03;;
3781;SDS011;6881;49.962;7.718;2022-08-27T03:46:40;30.27;;;24.70;;
3781;SDS011;6881;49.962;7.718;2022-08-27T03:49:06;29.67;;;22.40;;
3781;SDS011;6881;49.962;7.718;2022-08-27T03:51:31;25.97;;;21.77;;
3781;SDS011;6881;49.962;7.718;2022-08-27T03:53:56;27.47;;;20.50;;
3781;SDS011;6881;49.962;7.718;2022-08-27T03:56:22;24.23;;;19.50;;
3781;SDS011;6881;49.962;7.718;2022-08-27T03:58:47;22.83;;;18.90;;
3781;SDS011;6881;49.962;7.718;2022-08-27T04:01:12;20.63;;;17.60;;
3781;SDS011;6881;49.962;7.718;2022-08-27T04:03:38;22.00;;;18.27;;
3781;SDS011;6881;49.962;7.718;2022-08-27T04:06:03;19.83;;;16.20;;
3781;SDS011;6881;49.962;7.718;2022-08-27T04:08:28;21.43;;;17.20;;
3781;SDS011;6881;49.962;7.718;2022-08-27T04:10:54;21.27;;;17.27;;
3781;SDS011;6881;49.962;7.718;2022-08-27T04:13:20;21.87;;;18.50;;
3781;SDS011;6881;49.962;7.718;2022-08-27T04:15:48;22.70;;;17.70;;
3781;SDS011;6881;49.962;7.718;2022-08-27T04:18:14;27.60;;;21.60;;
3781;SDS011;6881;49.962;7.718;2022-08-27T04:20:41;24.27;;;21.10;;
3781;SDS011;6881;49.962;7.718;2022-08-27T04:23:07;28.87;;;21.83;;
3781;SDS011;6881;49.962;7.718;2022-08-27T04:25:33;30.77;;;23.90;;
3781;SDS011;6881;49.962;7.718;2022-08-27T04:27:58;33.00;;;26.30;;
3781;SDS011;6881;49.962;7.718;2022-08-27T04:30:24;35.40;;;24.60;;
3781;SDS011;6881;49.962;7.718;2022-08-27T04:32:49;37.87;;;26.10;;
3781;SDS011;6881;49.962;7.718;2022-08-27T04:35:14;38.50;;;28.00;;
3781;SDS011;6881;49.962;7.718;2022-08-27T04:37:40;38.97;;;27.80;;
3781;SDS011;6881;49.962;7.718;2022-08-27T04:40:05;37.57;;;27.73;;
3781;SDS011;6881;49.962;7.718;2022-08-27T04:42:31;37.93;;;28.47;;
3781;SDS011;6881;49.962;7.718;2022-08-27T04:44:56;41.43;;;29.33;;
3781;SDS011;6881;49.962;7.718;2022-08-27T04:47:22;40.50;;;28.77;;
3781;SDS011;6881;49.962;7.718;2022-08-27T04:49:47;49.53;;;32.20;;
3781;SDS011;6881;49.962;7.718;2022-08-27T04:52:13;44.57;;;30.10;;
3781;SDS011;6881;49.962;7.718;2022-08-27T04:54:40;39.80;;;29.83;;
3781;SDS011;6881;49.962;7.718;2022-08-27T04:57:05;37.27;;;27.97;;
3781;SDS011;6881;49.962;7.718;2022-08-27T04:59:32;34.90;;;25.97;;
3781;SDS011;6881;49.962;7.718;2022-08-27T05:01:59;44.40;;;28.97;;
3781;SDS011;6881;49.962;7.718;2022-08-27T05:04:25;41.40;;;29.47;;
3781;SDS011;6881;49.962;7.718;2022-08-27T05:06:52;41.27;;;29.27;;
3781;SDS011;6881;49.962;7.718;2022-08-27T05:09:17;36.63;;;26.67;;
3781;SDS011;6881;49.962;7.718;2022-08-27T05:11:44;43.40;;;29.00;;
3781;SDS011;6881;49.962;7.718;2022-08-27T05:14:11;37.63;;;29.10;;
3781;SDS011;6881;49.962;7.718;2022-08-27T05:16:38;37.97;;;27.27;;
3781;SDS011;6881;49.962;7.718;2022-08-27T05:19:05;39.90;;;28.70;;
3781;SDS011;6881;49.962;7.718;2022-08-27T05:21:36;39.97;;;29.33;;
3781;SDS011;6881;49.962;7.718;2022-08-27T05:24:03;46.80;;;30.53;;
3781;SDS011;6881;49.962;7.718;2022-08-27T05:26:29;38.00;;;29.73;;
3781;SDS011;6881;49.962;7.718;2022-08-27T05:28:59;45.47;;;31.63;;
3781;SDS011;6881;49.962;7.718;2022-08-27T05:31:25;45.13;;;31.57;;
3781;SDS011;6881;49.962;7.718;2022-08-27T05:33:52;41.83;;;30.40;;
3781;SDS011;6881;49.962;7.718;2022-08-27T05:36:21;45.07;;;31.20;;
3781;SDS011;6881;49.962;7.718;2022-08-27T05:38:50;45.43;;;31.93;;
3781;SDS011;6881;49.962;7.718;2022-08-27T05:41:17;43.83;;;31.23;;
3781;SDS011;6881;49.962;7.718;2022-08-27T05:43:45;45.13;;;31.43;;
3781;SDS011;6881;49.962;7.718;2022-08-27T05:46:12;43.10;;;29.00;;
3781;SDS011;6881;49.962;7.718;2022-08-27T05:48:40;37.93;;;27.77;;
3781;SDS011;6881;49.962;7.718;2022-08-27T05:51:16;40.77;;;29.70;;
3781;SDS011;6881;49.962;7.718;2022-08-27T05:53:42;37.47;;;27.20;;
3781;SDS011;6881;49.962;7.718;2022-08-27T05:56:14;37.20;;;27.10;;
3781;SDS011;6881;49.962;7.718;2022-08-27T05:58:42;33.83;;;26.00;;
3781;SDS011;6881;49.962;7.718;2022-08-27T06:01:26;38.80;;;26.97;;
3781;SDS011;6881;49.962;7.718;2022-08-27T06:03:54;37.70;;;27.50;;
3781;SDS011;6881;49.962;7.718;2022-08-27T06:06:20;37.00;;;28.37;;
3781;SDS011;6881;49.962;7.718;2022-08-27T06:08:47;38.63;;;26.93;;
3781;SDS011;6881;49.962;7.718;2022-08-27T06:11:13;32.77;;;25.63;;
3781;SDS011;6881;49.962;7.718;2022-08-27T06:13:38;37.07;;;25.90;;
3781;SDS011;6881;49.962;7.718;2022-08-27T06:16:04;34.60;;;26.67;;
3781;SDS011;6881;49.962;7.718;2022-08-27T06:18:33;31.83;;;25.47;;
3781;SDS011;6881;49.962;7.718;2022-08-27T06:21:02;35.40;;;25.53;;
3781;SDS011;6881;49.962;7.718;2022-08-27T06:23:28;34.50;;;26.20;;
3781;SDS011;6881;49.962;7.718;2022-08-27T06:25:54;37.40;;;26.93;;
3781;SDS011;6881;49.962;7.718;2022-08-27T06:28:21;34.90;;;25.40;;
3781;SDS011;6881;49.962;7.718;2022-08-27T06:30:49;31.13;;;24.40;;
3781;SDS011;6881;49.962;7.718;2022-08-27T06:33:14;29.73;;;23.10;;
3781;SDS011;6881;49.962;7.718;2022-08-27T06:35:40;31.53;;;23.70;;
3781;SDS011;6881;49.962;7.718;2022-08-27T06:38:06;28.03;;;23.23;;
3781;SDS011;6881;49.962;7.718;2022-08-27T06:40:31;31.63;;;23.33;;
3781;SDS011;6881;49.962;7.718;2022-08-27T06:42:57;34.10;;;23.67;;
3781;SDS011;6881;49.962;7.718;2022-08-27T06:45:22;28.43;;;22.33;;
3781;SDS011;6881;49.962;7.718;2022-08-27T06:47:48;27.27;;;22.33;;
3781;SDS011;6881;49.962;7.718;2022-08-27T06:50:13;27.30;;;21.83;;
3781;SDS011;6881;49.962;7.718;2022-08-27T06:52:39;25.03;;;21.80;;
3781;SDS011;6881;49.962;7.718;2022-08-27T06:55:04;27.90;;;20.77;;
3781;SDS011;6881;49.962;7.718;2022-08-27T06:57:30;24.87;;;20.67;;
3781;SDS011;6881;49.962;7.718;2022-08-27T06:59:56;29.30;;;22.83;;
3781;SDS011;6881;49.962;7.718;2022-08-27T07:02:21;26.23;;;20.30;;
3781;SDS011;6881;49.962;7.718;2022-08-27T07:04:47;24.20;;;19.40;;
3781;SDS011;6881;49.962;7.718;2022-08-27T07:07:12;23.10;;;19.23;;
3781;SDS011;6881;49.962;7.718;2022-08-27T07:09:38;28.43;;;20.13;;
3781;SDS011;6881;49.962;7.718;2022-08-27T07:12:04;23.10;;;18.40;;
3781;SDS011;6881;49.962;7.718;2022-08-27T07:14:30;25.33;;;18.30;;
3781;SDS011;6881;49.962;7.718;2022-08-27T07:16:55;21.93;;;18.20;;
3781;SDS011;6881;49.962;7.718;2022-08-27T07:19:21;18.63;;;15.97;;
3781;SDS011;6881;49.962;7.718;2022-08-27T07:21:46;21.90;;;17.97;;
3781;SDS011;6881;49.962;7.718;2022-08-27T07:24:12;22.00;;;17.30;;
3781;SDS011;6881;49.962;7.718;2022-08-27T07:26:38;22.70;;;16.43;;
3781;SDS011;6881;49.962;7.718;2022-08-27T07:29:06;18.83;;;15.13;;
3781;SDS011;6881;49.962;7.718;2022-08-27T07:31:33;18.90;;;15.57;;
3781;SDS011;6881;49.962;7.718;2022-08-27T07:34:03;17.17;;;14.67;;
3781;SDS011;6881;49.962;7.718;2022-08-27T07:36:29;19.37;;;15.87;;
3781;SDS011;6881;49.962;7.718;2022-08-27T07:38:54;20.57;;;15.50;;
3781;SDS011;6881;49.962;7.718;2022-08-27T07:41:19;20.20;;;17.20;;
3781;SDS011;6881;49.962;7.718;2022-08-27T07:43:45;19.73;;;16.50;;
3781;SDS011;6881;49.962;7.718;2022-08-27T07:46:29;18.00;;;14.70;;
3781;SDS011;6881;49.962;7.718;2022-08-27T07:48:54;19.63;;;15.80;;
3781;SDS011;6881;49.962;7.718;2022-08-27T07:51:21;22.40;;;16.30;;
3781;SDS011;6881;49.962;7.718;2022-08-27T07:53:48;18.47;;;16.57;;
3781;SDS011;6881;49.962;7.718;2022-08-27T07:56:14;19.27;;;14.80;;
3781;SDS011;6881;49.962;7.718;2022-08-27T07:58:40;21.47;;;15.50;;
3781;SDS011;6881;49.962;7.718;2022-08-27T08:01:06;22.00;;;14.27;;
3781;SDS011;6881;49.962;7.718;2022-08-27T08:03:31;15.57;;;13.33;;
3781;SDS011;6881;49.962;7.718;2022-08-27T08:06:01;18.30;;;13.23;;
3781;SDS011;6881;49.962;7.718;2022-08-27T08:08:30;16.80;;;14.20;;
3781;SDS011;6881;49.962;7.718;2022-08-27T08:10:57;17.93;;;14.23;;
3781;SDS011;6881;49.962;7.718;2022-08-27T08:13:22;18.17;;;13.50;;
3781;SDS011;6881;49.962;7.718;2022-08-27T08:15:48;15.43;;;13.00;;
3781;SDS011;6881;49.962;7.718;2022-08-27T08:18:14;16.40;;;11.97;;
3781;SDS011;6881;49.962;7.718;2022-08-27T08:20:39;13.13;;;11.67;;
3781;SDS011;6881;49.962;7.718;2022-08-27T08:23:05;16.60;;;13.10;;
3781;SDS011;6881;49.962;7.718;2022-08-27T08:25:31;14.97;;;11.67;;
3781;SDS011;6881;49.962;7.718;2022-08-27T08:27:56;18.80;;;11.30;;
3781;SDS011;6881;49.962;7.718;2022-08-27T08:30:22;15.90;;;12.20;;
3781;SDS011;6881;49.962;7.718;2022-08-27T08:32:47;17.30;;;13.10;;
3781;SDS011;6881;49.962;7.718;2022-08-27T08:35:13;13.77;;;11.57;;
3781;SDS011;6881;49.962;7.718;2022-08-27T08:37:41;14.50;;;11.90;;
3781;SDS011;6881;49.962;7.718;2022-08-27T08:40:07;16.80;;;13.83;;
3781;SDS011;6881;49.962;7.718;2022-08-27T08:42:50;16.03;;;13.67;;
3781;SDS011;6881;49.962;7.718;2022-08-27T08:45:18;18.33;;;13.60;;
3781;SDS011;6881;49.962;7.718;2022-08-27T08:47:47;13.37;;;11.17;;
3781;SDS011;6881;49.962;7.718;2022-08-27T08:53:10;15.30;;;12.10;;
3781;SDS011;6881;49.962;7.718;2022-08-27T09:00:45;14.57;;;10.37;;
3781;SDS011;6881;49.962;7.718;2022-08-27T09:03:17;14.23;;;12.10;;
3781;SDS011;6881;49.962;7.718;2022-08-27T09:05:44;14.57;;;11.40;;
3781;SDS011;6881;49.962;7.718;2022-08-27T09:08:14;13.60;;;10.40;;
3781;SDS011;6881;49.962;7.718;2022-08-27T09:10:58;14.13;;;11.00;;
3781;SDS011;6881;49.962;7.718;2022-08-27T09:16:14;11.23;;;10.07;;
3781;SDS011;6881;49.962;7.718;2022-08-27T09:18:40;13.87;;;10.70;;
3781;SDS011;6881;49.962;7.718;2022-08-27T09:21:17;14.13;;;11.13;;
3781;SDS011;6881;49.962;7.718;2022-08-27T09:26:20;16.13;;;12.37;;
3781;SDS011;6881;49.962;7.718;2022-08-27T09:28:47;11.10;;;10.00;;
3781;SDS011;6881;49.962;7.718;2022-08-27T09:31:34;13.60;;;11.10;;
3781;SDS011;6881;49.962;7.718;2022-08-27T09:34:04;14.13;;;12.00;;
3781;SDS011;6881;49.962;7.718;2022-08-27T09:36:30;16.30;;;10.60;;
3781;SDS011;6881;49.962;7.718;2022-08-27T09:38:59;13.13;;;10.80;;
3781;SDS011;6881;49.962;7.718;2022-08-27T09:41:28;10.97;;;9.60;;
3781;SDS011;6881;49.962;7.718;2022-08-27T09:43:59;13.63;;;10.80;;
3781;SDS011;6881;49.962;7.718;2022-08-27T09:46:26;12.10;;;9.67;;
3781;SDS011;6881;49.962;7.718;2022-08-27T09:48:54;9.80;;;8.80;;
3781;SDS011;6881;49.962;7.718;2022-08-27T09:51:29;10.60;;;9.10;;
3781;SDS011;6881;49.962;7.718;2022-08-27T09:53:59;11.23;;;8.90;;
3781;SDS011;6881;49.962;7.718;2022-08-27T10:01:31;9.70;;;7.10;;
3781;SDS011;6881;49.962;7.718;2022-08-27T10:04:12;6.60;;;6.00;;
3781;SDS011;6881;49.962;7.718;2022-08-27T10:06:46;7.43;;;6.73;;
3781;SDS011;6881;49.962;7.718;2022-08-27T10:09:21;9.43;;;7.47;;
3781;SDS011;6881;49.962;7.718;2022-08-27T10:11:58;9.77;;;8.17;;
3781;SDS011;6881;49.962;7.718;2022-08-27T10:17:11;8.77;;;7.87;;
3781;SDS011;6881;49.962;7.718;2022-08-27T10:19:51;8.23;;;7.40;;
3781;SDS011;6881;49.962;7.718;2022-08-27T10:28:22;9.30;;;7.47;;
3781;SDS011;6881;49.962;7.718;2022-08-27T10:30:37;11.23;;;7.43;;
3781;SDS011;6881;49.962;7.718;2022-08-27T10:33:08;8.03;;;6.40;;
3781;SDS011;6881;49.962;7.718;2022-08-27T10:38:42;9.07;;;7.20;;
3781;SDS011;6881;49.962;7.718;2022-08-27T10:41:22;6.70;;;6.00;;
3781;SDS011;6881;49.962;7.718;2022-08-27T10:44:05;8.20;;;7.40;;
3781;SDS011;6881;49.962;7.718;2022-08-27T11:05:17;13.50;;;11.10;;
3781;SDS011;6881;49.962;7.718;2022-08-27T11:07:50;14.97;;;12.63;;
3781;SDS011;6881;49.962;7.718;2022-08-27T11:13:16;16.70;;;12.93;;
3781;SDS011;6881;49.962;7.718;2022-08-27T11:15:42;18.37;;;13.97;;
3781;SDS011;6881;49.962;7.718;2022-08-27T11:24:00;18.93;;;14.87;;
3781;SDS011;6881;49.962;7.718;2022-08-27T11:26:30;25.30;;;18.17;;
3781;SDS011;6881;49.962;7.718;2022-08-27T11:28:57;23.40;;;20.80;;
3781;SDS011;6881;49.962;7.718;2022-08-27T11:42:37;19.93;;;17.40;;
3781;SDS011;6881;49.962;7.718;2022-08-27T11:45:16;20.50;;;18.23;;
3781;SDS011;6881;49.962;7.718;2022-08-27T11:47:51;21.03;;;18.53;;
3781;SDS011;6881;49.962;7.718;2022-08-27T11:50:18;23.43;;;19.70;;
3781;SDS011;6881;49.962;7.718;2022-08-27T11:55:29;19.37;;;17.40;;
3781;SDS011;6881;49.962;7.718;2022-08-27T12:00:38;19.33;;;16.70;;
3781;SDS011;6881;49.962;7.718;2022-08-27T12:05:35;20.27;;;17.57;;
3781;SDS011;6881;49.962;7.718;2022-08-27T12:18:55;21.37;;;17.90;;
3781;SDS011;6881;49.962;7.718;2022-08-27T12:27:00;18.57;;;16.67;;
3781;SDS011;6881;49.962;7.718;2022-08-27T12:37:28;19.67;;;16.50;;
3781;SDS011;6881;49.962;7.718;2022-08-27T12:40:26;19.37;;;17.30;;
3781;SDS011;6881;49.962;7.718;2022-08-27T12:43:06;18.63;;;16.63;;
3781;SDS011;6881;49.962;7.718;2022-08-27T12:45:46;16.10;;;14.50;;
3781;SDS011;6881;49.962;7.718;2022-08-27T12:48:13;17.47;;;15.60;;
3781;SDS011;6881;49.962;7.718;2022-08-27T12:50:49;15.60;;;13.43;;
3781;SDS011;6881;49.962;7.718;2022-08-27T12:56:02;18.03;;;15.47;;
3781;SDS011;6881;49.962;7.718;2022-08-27T13:01:52;15.40;;;13.80;;
3781;SDS011;6881;49.962;7.718;2022-08-27T13:04:24;17.83;;;13.83;;
3781;SDS011;6881;49.962;7.718;2022-08-27T13:06:51;19.00;;;15.33;;
3781;SDS011;6881;49.962;7.718;2022-08-27T13:09:24;15.37;;;13.77;;
3781;SDS011;6881;49.962;7.718;2022-08-27T13:11:54;16.50;;;14.80;;
3781;SDS011;6881;49.962;7.718;2022-08-27T13:14:21;17.60;;;15.13;;
3781;SDS011;6881;49.962;7.718;2022-08-27T13:16:53;18.70;;;14.87;;
3781;SDS011;6881;49.962;7.718;2022-08-27T13:19:23;17.27;;;14.07;;
3781;SDS011;6881;49.962;7.718;2022-08-27T13:21:48;16.27;;;14.63;;
3781;SDS011;6881;49.962;7.718;2022-08-27T13:25:04;16.23;;;14.47;;
3781;SDS011;6881;49.962;7.718;2022-08-27T13:27:12;17.63;;;15.73;;
3781;SDS011;6881;49.962;7.718;2022-08-27T13:29:38;15.90;;;14.30;;
3781;SDS011;6881;49.962;7.718;2022-08-27T13:32:04;18.83;;;16.90;;
3781;SDS011;6881;49.962;7.718;2022-08-27T13:34:35;17.10;;;14.50;;
3781;SDS011;6881;49.962;7.718;2022-08-27T13:37:03;14.20;;;12.73;;
3781;SDS011;6881;49.962;7.718;2022-08-27T13:39:35;15.30;;;13.73;;
3781;SDS011;6881;49.962;7.718;2022-08-27T13:42:03;18.10;;;15.83;;
3781;SDS011;6881;49.962;7.718;2022-08-27T13:44:31;17.13;;;13.70;;
3781;SDS011;6881;49.962;7.718;2022-08-27T13:46:59;14.57;;;13.17;;
3781;SDS011;6881;49.962;7.718;2022-08-27T13:49:28;16.07;;;14.37;;
3781;SDS011;6881;49.962;7.718;2022-08-27T13:54:42;16.37;;;14.60;;
3781;SDS011;6881;49.962;7.718;2022-08-27T13:57:38;15.63;;;14.03;;
3781;SDS011;6881;49.962;7.718;2022-08-27T14:00:09;17.10;;;14.73;;
3781;SDS011;6881;49.962;7.718;2022-08-27T14:02:40;15.60;;;14.00;;
3781;SDS011;6881;49.962;7.718;2022-08-27T14:05:13;14.17;;;12.77;;
3781;SDS011;6881;49.962;7.718;2022-08-27T14:07:47;16.53;;;14.87;;
3781;SDS011;6881;49.962;7.718;2022-08-27T14:12:42;15.57;;;14.00;;
3781;SDS011;6881;49.962;7.718;2022-08-27T14:15:20;15.37;;;13.73;;
3781;SDS011;6881;49.962;7.718;2022-08-27T14:17:47;16.43;;;14.83;;
3781;SDS011;6881;49.962;7.718;2022-08-27T14:20:14;15.07;;;13.17;;
3781;SDS011;6881;49.962;7.718;2022-08-27T14:22:41;14.50;;;13.20;;
3781;SDS011;6881;49.962;7.718;2022-08-27T14:25:07;13.50;;;12.20;;
3781;SDS011;6881;49.962;7.718;2022-08-27T14:27:34;14.53;;;13.13;;
3781;SDS011;6881;49.962;7.718;2022-08-27T14:30:00;15.27;;;13.77;;
3781;SDS011;6881;49.962;7.718;2022-08-27T14:32:25;14.47;;;12.97;;
3781;SDS011;6881;49.962;7.718;2022-08-27T14:34:51;14.50;;;13.10;;
3781;SDS011;6881;49.962;7.718;2022-08-27T14:37:17;14.90;;;13.27;;
3781;SDS011;6881;49.962;7.718;2022-08-27T14:39:42;16.23;;;12.47;;
3781;SDS011;6881;49.962;7.718;2022-08-27T14:42:08;12.57;;;11.23;;
3781;SDS011;6881;49.962;7.718;2022-08-27T14:44:34;13.20;;;11.90;;
3781;SDS011;6881;49.962;7.718;2022-08-27T14:47:00;14.43;;;12.93;;
3781;SDS011;6881;49.962;7.718;2022-08-27T14:49:29;13.07;;;11.90;;
3781;SDS011;6881;49.962;7.718;2022-08-27T14:51:56;12.93;;;11.63;;
3781;SDS011;6881;49.962;7.718;2022-08-27T14:54:21;15.07;;;13.47;;
3781;SDS011;6881;49.962;7.718;2022-08-27T14:56:47;15.60;;;14.00;;
3781;SDS011;6881;49.962;7.718;2022-08-27T14:59:12;14.63;;;13.03;;
3781;SDS011;6881;49.962;7.718;2022-08-27T15:01:38;13.40;;;11.60;;
3781;SDS011;6881;49.962;7.718;2022-08-27T15:04:03;14.90;;;12.33;;
3781;SDS011;6881;49.962;7.718;2022-08-27T15:06:29;14.43;;;12.90;;
3781;SDS011;6881;49.962;7.718;2022-08-27T15:08:54;13.03;;;11.70;;
3781;SDS011;6881;49.962;7.718;2022-08-27T15:11:21;13.17;;;11.87;;
3781;SDS011;6881;49.962;7.718;2022-08-27T15:13:49;17.07;;;14.23;;
3781;SDS011;6881;49.962;7.718;2022-08-27T15:16:24;16.33;;;14.60;;
3781;SDS011;6881;49.962;7.718;2022-08-27T15:18:58;17.13;;;15.27;;
3781;SDS011;6881;49.962;7.718;2022-08-27T15:21:24;15.60;;;13.97;;
3781;SDS011;6881;49.962;7.718;2022-08-27T15:23:52;17.00;;;14.80;;
3781;SDS011;6881;49.962;7.718;2022-08-27T15:26:21;17.70;;;15.73;;
3781;SDS011;6881;49.962;7.718;2022-08-27T15:28:46;15.90;;;13.57;;
3781;SDS011;6881;49.962;7.718;2022-08-27T15:31:11;15.20;;;13.80;;
3781;SDS011;6881;49.962;7.718;2022-08-27T15:33:37;18.27;;;15.37;;
3781;SDS011;6881;49.962;7.718;2022-08-27T15:36:02;16.47;;;14.27;;
3781;SDS011;6881;49.962;7.718;2022-08-27T15:38:27;19.07;;;15.70;;
3781;SDS011;6881;49.962;7.718;2022-08-27T15:40:53;17.97;;;14.83;;
3781;SDS011;6881;49.962;7.718;2022-08-27T15:43:25;17.60;;;14.83;;
3781;SDS011;6881;49.962;7.718;2022-08-27T15:45:51;14.10;;;12.40;;
3781;SDS011;6881;49.962;7.718;2022-08-27T15:48:16;15.87;;;13.63;;
3781;SDS011;6881;49.962;7.718;2022-08-27T15:50:41;15.60;;;14.00;;
3781;SDS011;6881;49.962;7.718;2022-08-27T15:53:07;14.27;;;12.80;;
3781;SDS011;6881;49.962;7.718;2022-08-27T15:55:34;14.80;;;12.30;;
3781;SDS011;6881;49.962;7.718;2022-08-27T15:58:02;12.40;;;11.20;;
3781;SDS011;6881;49.962;7.718;2022-08-27T16:00:28;13.90;;;12.53;;
3781;SDS011;6881;49.962;7.718;2022-08-27T16:02:56;14.27;;;12.87;;
3781;SDS011;6881;49.962;7.718;2022-08-27T16:05:21;13.80;;;12.17;;
3781;SDS011;6881;49.962;7.718;2022-08-27T16:07:47;13.70;;;12.10;;
3781;SDS011;6881;49.962;7.718;2022-08-27T16:10:13;15.57;;;13.83;;
3781;SDS011;6881;49.962;7.718;2022-08-27T16:12:39;15.43;;;13.83;;
3781;SDS011;6881;49.962;7.718;2022-08-27T16:15:05;14.77;;;13.27;;
3781;SDS011;6881;49.962;7.718;2022-08-27T16:17:31;14.03;;;12.80;;
3781;SDS011;6881;49.962;7.718;2022-08-27T16:19:56;12.20;;;10.93;;
3781;SDS011;6881;49.962;7.718;2022-08-27T16:22:22;15.43;;;12.90;;
3781;SDS011;6881;49.962;7.718;2022-08-27T16:24:48;14.13;;;12.73;;
3781;SDS011;6881;49.962;7.718;2022-08-27T16:27:13;14.73;;;13.33;;
3781;SDS011;6881;49.962;7.718;2022-08-27T16:29:38;14.47;;;12.97;;
3781;SDS011;6881;49.962;7.718;2022-08-27T16:32:04;14.17;;;12.77;;
3781;SDS011;6881;49.962;7.718;2022-08-27T16:34:30;14.33;;;12.77;;
3781;SDS011;6881;49.962;7.718;2022-08-27T16:36:55;13.17;;;11.87;;
3781;SDS011;6881;49.962;7.718;2022-08-27T16:39:21;13.20;;;11.80;;
3781;SDS011;6881;49.962;7.718;2022-08-27T16:41:47;12.43;;;11.13;;
3781;SDS011;6881;49.962;7.718;2022-08-27T16:44:12;15.30;;;13.80;;
3781;SDS011;6881;49.962;7.718;2022-08-27T16:46:38;12.73;;;11.50;;
3781;SDS011;6881;49.962;7.718;2022-08-27T16:49:03;15.63;;;12.60;;
3781;SDS011;6881;49.962;7.718;2022-08-27T16:51:47;12.80;;;11.50;;
3781;SDS011;6881;49.962;7.718;2022-08-27T16:54:12;12.13;;;10.83;;
3781;SDS011;6881;49.962;7.718;2022-08-27T16:56:40;12.43;;;11.17;;